sensor_id;sensor_type;location;lat;lon;timestamp;P1;durP1;ratioP1;P2;durP2;ratioP2
22219;SDS011;11279;48.364;10.904;2022-12-07T00:00:03;13.35;;;8.20;;
22219;SDS011;11279;48.364;10.904;2022-12-07T00:01:46;14.77;;;8.20;;
22219;SDS011;11279;48.364;10.904;2022-12-07T00:02:28;12.73;;;7.43;;
22219;SDS011;11279;48.364;10.904;2022-12-07T00:03:29;13.30;;;7.80;;
22219;SDS011;11279;48.364;10.904;2022-12-07T00:04:29;14.47;;;7.97;;
22219;SDS011;11279;48.364;10.904;2022-12-07T00:05:30;15.43;;;8.50;;
22219;SDS011;11279;48.364;10.904;2022-12-07T00:06:37;14.90;;;8.60;;
22219;SDS011;11279;48.364;10.904;2022-12-07T00:07:39;14.30;;;8.85;;
22219;SDS011;11279;48.364;10.904;2022-12-07T00:08:39;14.80;;;8.33;;
22219;SDS011;11279;48.364;10.904;2022-12-07T00:09:40;14.13;;;7.73;;
22219;SDS011;11279;48.364;10.904;2022-12-07T00:10:41;14.48;;;7.63;;
22219;SDS011;11279;48.364;10.904;2022-12-07T00:11:42;17.30;;;8.60;;
22219;SDS011;11279;48.364;10.904;2022-12-07T00:12:43;14.45;;;8.23;;
22219;SDS011;11279;48.364;10.904;2022-12-07T00:13:43;13.87;;;8.60;;
22219;SDS011;11279;48.364;10.904;2022-12-07T00:14:44;15.63;;;8.03;;
22219;SDS011;11279;48.364;10.904;2022-12-07T00:15:44;14.47;;;8.43;;
22219;SDS011;11279;48.364;10.904;2022-12-07T00:16:45;15.77;;;8.37;;
22219;SDS011;11279;48.364;10.904;2022-12-07T00:17:46;14.00;;;8.60;;
22219;SDS011;11279;48.364;10.904;2022-12-07T00:18:46;14.80;;;8.13;;
22219;SDS011;11279;48.364;10.904;2022-12-07T00:19:46;16.43;;;9.10;;
22219;SDS011;11279;48.364;10.904;2022-12-07T00:20:47;14.63;;;8.63;;
22219;SDS011;11279;48.364;10.904;2022-12-07T00:21:47;15.03;;;8.47;;
22219;SDS011;11279;48.364;10.904;2022-12-07T00:22:48;13.20;;;8.27;;
22219;SDS011;11279;48.364;10.904;2022-12-07T00:23:48;14.50;;;8.97;;
22219;SDS011;11279;48.364;10.904;2022-12-07T00:24:50;13.80;;;8.23;;
22219;SDS011;11279;48.364;10.904;2022-12-07T00:25:50;16.07;;;8.43;;
22219;SDS011;11279;48.364;10.904;2022-12-07T00:26:50;13.23;;;8.10;;
22219;SDS011;11279;48.364;10.904;2022-12-07T00:27:54;13.27;;;8.00;;
22219;SDS011;11279;48.364;10.904;2022-12-07T00:28:58;17.27;;;8.93;;
22219;SDS011;11279;48.364;10.904;2022-12-07T00:29:59;13.93;;;8.23;;
22219;SDS011;11279;48.364;10.904;2022-12-07T00:31:04;12.33;;;7.87;;
22219;SDS011;11279;48.364;10.904;2022-12-07T00:32:05;13.25;;;7.68;;
22219;SDS011;11279;48.364;10.904;2022-12-07T00:33:06;13.30;;;8.50;;
22219;SDS011;11279;48.364;10.904;2022-12-07T00:34:07;13.27;;;8.47;;
22219;SDS011;11279;48.364;10.904;2022-12-07T00:35:09;14.93;;;9.00;;
22219;SDS011;11279;48.364;10.904;2022-12-07T00:36:11;13.80;;;8.73;;
22219;SDS011;11279;48.364;10.904;2022-12-07T00:37:15;13.82;;;8.95;;
22219;SDS011;11279;48.364;10.904;2022-12-07T00:38:15;14.07;;;8.40;;
22219;SDS011;11279;48.364;10.904;2022-12-07T00:39:16;15.43;;;8.83;;
22219;SDS011;11279;48.364;10.904;2022-12-07T00:40:16;15.07;;;9.00;;
22219;SDS011;11279;48.364;10.904;2022-12-07T00:41:17;13.47;;;8.50;;
22219;SDS011;11279;48.364;10.904;2022-12-07T00:42:19;14.63;;;8.85;;
22219;SDS011;11279;48.364;10.904;2022-12-07T00:43:19;13.37;;;8.33;;
22219;SDS011;11279;48.364;10.904;2022-12-07T00:44:20;14.57;;;8.70;;
22219;SDS011;11279;48.364;10.904;2022-12-07T00:45:20;14.40;;;8.77;;
22219;SDS011;11279;48.364;10.904;2022-12-07T00:46:21;12.57;;;8.13;;
22219;SDS011;11279;48.364;10.904;2022-12-07T00:47:22;15.37;;;8.70;;
22219;SDS011;11279;48.364;10.904;2022-12-07T00:48:22;13.70;;;8.03;;
22219;SDS011;11279;48.364;10.904;2022-12-07T00:49:23;14.93;;;8.80;;
22219;SDS011;11279;48.364;10.904;2022-12-07T00:50:23;12.77;;;7.60;;
22219;SDS011;11279;48.364;10.904;2022-12-07T00:51:24;15.20;;;8.80;;
22219;SDS011;11279;48.364;10.904;2022-12-07T00:52:25;14.02;;;7.90;;
22219;SDS011;11279;48.364;10.904;2022-12-07T00:53:26;14.43;;;8.30;;
22219;SDS011;11279;48.364;10.904;2022-12-07T00:54:26;15.33;;;8.97;;
22219;SDS011;11279;48.364;10.904;2022-12-07T00:55:27;14.33;;;8.63;;
22219;SDS011;11279;48.364;10.904;2022-12-07T00:56:27;15.67;;;9.03;;
22219;SDS011;11279;48.364;10.904;2022-12-07T00:57:29;12.43;;;8.05;;
22219;SDS011;11279;48.364;10.904;2022-12-07T00:58:30;14.77;;;7.80;;
22219;SDS011;11279;48.364;10.904;2022-12-07T00:59:30;14.20;;;8.30;;
22219;SDS011;11279;48.364;10.904;2022-12-07T01:00:31;13.60;;;8.67;;
22219;SDS011;11279;48.364;10.904;2022-12-07T01:01:33;12.93;;;8.43;;
22219;SDS011;11279;48.364;10.904;2022-12-07T01:02:34;15.55;;;8.98;;
22219;SDS011;11279;48.364;10.904;2022-12-07T01:03:38;13.63;;;8.50;;
22219;SDS011;11279;48.364;10.904;2022-12-07T01:04:38;15.63;;;8.53;;
22219;SDS011;11279;48.364;10.904;2022-12-07T01:05:39;15.60;;;8.50;;
22219;SDS011;11279;48.364;10.904;2022-12-07T01:06:39;13.53;;;8.33;;
22219;SDS011;11279;48.364;10.904;2022-12-07T01:07:40;14.47;;;8.77;;
22219;SDS011;11279;48.364;10.904;2022-12-07T01:08:40;13.27;;;8.33;;
22219;SDS011;11279;48.364;10.904;2022-12-07T01:09:41;14.87;;;9.17;;
22219;SDS011;11279;48.364;10.904;2022-12-07T01:10:41;13.10;;;8.20;;
22219;SDS011;11279;48.364;10.904;2022-12-07T01:11:42;14.47;;;8.73;;
22219;SDS011;11279;48.364;10.904;2022-12-07T01:12:42;15.07;;;8.80;;
22219;SDS011;11279;48.364;10.904;2022-12-07T01:13:43;13.20;;;8.40;;
22219;SDS011;11279;48.364;10.904;2022-12-07T01:14:43;12.77;;;8.60;;
22219;SDS011;11279;48.364;10.904;2022-12-07T01:15:44;14.47;;;8.83;;
22219;SDS011;11279;48.364;10.904;2022-12-07T01:16:44;14.77;;;8.20;;
22219;SDS011;11279;48.364;10.904;2022-12-07T01:17:45;13.27;;;8.17;;
22219;SDS011;11279;48.364;10.904;2022-12-07T01:18:46;13.57;;;7.97;;
22219;SDS011;11279;48.364;10.904;2022-12-07T01:19:47;13.70;;;8.40;;
22219;SDS011;11279;48.364;10.904;2022-12-07T01:20:56;16.23;;;9.13;;
22219;SDS011;11279;48.364;10.904;2022-12-07T01:21:58;13.15;;;8.40;;
22219;SDS011;11279;48.364;10.904;2022-12-07T01:22:58;12.83;;;8.27;;
22219;SDS011;11279;48.364;10.904;2022-12-07T01:23:59;16.53;;;8.67;;
22219;SDS011;11279;48.364;10.904;2022-12-07T01:24:59;15.93;;;7.47;;
22219;SDS011;11279;48.364;10.904;2022-12-07T01:26:00;13.90;;;8.47;;
22219;SDS011;11279;48.364;10.904;2022-12-07T01:27:02;15.35;;;8.90;;
22219;SDS011;11279;48.364;10.904;2022-12-07T01:28:03;14.63;;;8.17;;
22219;SDS011;11279;48.364;10.904;2022-12-07T01:29:03;12.90;;;8.10;;
22219;SDS011;11279;48.364;10.904;2022-12-07T01:30:05;14.13;;;8.80;;
22219;SDS011;11279;48.364;10.904;2022-12-07T01:31:11;14.13;;;8.13;;
22219;SDS011;11279;48.364;10.904;2022-12-07T01:32:12;13.82;;;8.18;;
22219;SDS011;11279;48.364;10.904;2022-12-07T01:33:13;12.73;;;7.67;;
22219;SDS011;11279;48.364;10.904;2022-12-07T01:34:13;14.30;;;8.53;;
22219;SDS011;11279;48.364;10.904;2022-12-07T01:35:14;13.07;;;8.07;;
22219;SDS011;11279;48.364;10.904;2022-12-07T01:36:19;13.47;;;8.43;;
22219;SDS011;11279;48.364;10.904;2022-12-07T01:37:20;14.25;;;8.82;;
22219;SDS011;11279;48.364;10.904;2022-12-07T01:38:21;13.57;;;8.57;;
22219;SDS011;11279;48.364;10.904;2022-12-07T01:39:21;14.53;;;8.77;;
22219;SDS011;11279;48.364;10.904;2022-12-07T01:40:22;13.03;;;8.50;;
22219;SDS011;11279;48.364;10.904;2022-12-07T01:41:23;12.80;;;7.77;;
22219;SDS011;11279;48.364;10.904;2022-12-07T01:42:25;13.82;;;8.30;;
22219;SDS011;11279;48.364;10.904;2022-12-07T01:43:27;14.10;;;8.40;;
22219;SDS011;11279;48.364;10.904;2022-12-07T01:44:29;13.85;;;8.23;;
22219;SDS011;11279;48.364;10.904;2022-12-07T01:45:34;13.25;;;8.13;;
22219;SDS011;11279;48.364;10.904;2022-12-07T01:46:38;14.98;;;7.82;;
22219;SDS011;11279;48.364;10.904;2022-12-07T01:47:39;13.18;;;7.95;;
22219;SDS011;11279;48.364;10.904;2022-12-07T01:48:40;14.93;;;8.30;;
22219;SDS011;11279;48.364;10.904;2022-12-07T01:49:42;14.73;;;8.38;;
22219;SDS011;11279;48.364;10.904;2022-12-07T01:50:45;15.20;;;9.00;;
22219;SDS011;11279;48.364;10.904;2022-12-07T01:51:47;14.80;;;8.82;;
22219;SDS011;11279;48.364;10.904;2022-12-07T01:52:49;14.90;;;9.00;;
22219;SDS011;11279;48.364;10.904;2022-12-07T01:53:50;13.02;;;7.78;;
22219;SDS011;11279;48.364;10.904;2022-12-07T01:54:52;12.80;;;8.07;;
22219;SDS011;11279;48.364;10.904;2022-12-07T01:55:54;14.32;;;8.77;;
22219;SDS011;11279;48.364;10.904;2022-12-07T01:56:56;14.70;;;8.77;;
22219;SDS011;11279;48.364;10.904;2022-12-07T01:57:57;14.23;;;8.93;;
22219;SDS011;11279;48.364;10.904;2022-12-07T01:58:57;13.93;;;8.80;;
22219;SDS011;11279;48.364;10.904;2022-12-07T02:00:00;14.48;;;8.73;;
22219;SDS011;11279;48.364;10.904;2022-12-07T02:01:01;13.80;;;7.97;;
22219;SDS011;11279;48.364;10.904;2022-12-07T02:02:01;14.70;;;8.97;;
22219;SDS011;11279;48.364;10.904;2022-12-07T02:04:15;13.98;;;8.52;;
22219;SDS011;11279;48.364;10.904;2022-12-07T02:05:16;13.50;;;8.40;;
22219;SDS011;11279;48.364;10.904;2022-12-07T02:06:19;12.95;;;8.35;;
22219;SDS011;11279;48.364;10.904;2022-12-07T02:07:21;14.73;;;8.73;;
22219;SDS011;11279;48.364;10.904;2022-12-07T02:08:23;14.95;;;9.05;;
22219;SDS011;11279;48.364;10.904;2022-12-07T02:09:24;14.63;;;8.73;;
22219;SDS011;11279;48.364;10.904;2022-12-07T02:10:28;12.80;;;8.27;;
22219;SDS011;11279;48.364;10.904;2022-12-07T02:11:30;16.48;;;9.30;;
22219;SDS011;11279;48.364;10.904;2022-12-07T02:12:30;14.77;;;8.90;;
22219;SDS011;11279;48.364;10.904;2022-12-07T02:13:32;15.83;;;9.00;;
22219;SDS011;11279;48.364;10.904;2022-12-07T02:14:33;14.05;;;8.23;;
22219;SDS011;11279;48.364;10.904;2022-12-07T02:17:47;14.88;;;9.05;;
22219;SDS011;11279;48.364;10.904;2022-12-07T02:21:39;14.45;;;8.60;;
22219;SDS011;11279;48.364;10.904;2022-12-07T02:28:31;14.50;;;8.80;;
22219;SDS011;11279;48.364;10.904;2022-12-07T02:30:38;14.07;;;8.50;;
22219;SDS011;11279;48.364;10.904;2022-12-07T02:31:46;13.85;;;8.65;;
22219;SDS011;11279;48.364;10.904;2022-12-07T02:33:13;15.40;;;8.98;;
22219;SDS011;11279;48.364;10.904;2022-12-07T02:34:22;12.70;;;7.65;;
22219;SDS011;11279;48.364;10.904;2022-12-07T02:35:30;14.43;;;8.68;;
22219;SDS011;11279;48.364;10.904;2022-12-07T02:36:35;14.07;;;8.73;;
22219;SDS011;11279;48.364;10.904;2022-12-07T02:40:34;14.93;;;8.25;;
22219;SDS011;11279;48.364;10.904;2022-12-07T02:41:40;13.90;;;8.60;;
22219;SDS011;11279;48.364;10.904;2022-12-07T02:42:45;13.45;;;8.45;;
22219;SDS011;11279;48.364;10.904;2022-12-07T02:43:52;14.60;;;8.85;;
22219;SDS011;11279;48.364;10.904;2022-12-07T02:44:54;14.27;;;8.27;;
22219;SDS011;11279;48.364;10.904;2022-12-07T02:46:04;16.03;;;9.30;;
22219;SDS011;11279;48.364;10.904;2022-12-07T02:47:09;15.40;;;8.75;;
22219;SDS011;11279;48.364;10.904;2022-12-07T02:48:12;14.85;;;8.65;;
22219;SDS011;11279;48.364;10.904;2022-12-07T02:49:15;14.00;;;8.85;;
22219;SDS011;11279;48.364;10.904;2022-12-07T02:50:17;15.90;;;8.95;;
22219;SDS011;11279;48.364;10.904;2022-12-07T02:51:20;18.13;;;9.55;;
22219;SDS011;11279;48.364;10.904;2022-12-07T02:52:21;14.50;;;7.97;;
22219;SDS011;11279;48.364;10.904;2022-12-07T02:53:31;12.77;;;8.20;;
22219;SDS011;11279;48.364;10.904;2022-12-07T02:54:32;15.13;;;9.15;;
22219;SDS011;11279;48.364;10.904;2022-12-07T02:55:37;15.47;;;9.07;;
22219;SDS011;11279;48.364;10.904;2022-12-07T03:00:17;15.60;;;9.15;;
22219;SDS011;11279;48.364;10.904;2022-12-07T03:03:47;13.55;;;8.70;;
22219;SDS011;11279;48.364;10.904;2022-12-07T03:06:10;12.68;;;8.27;;
22219;SDS011;11279;48.364;10.904;2022-12-07T03:09:07;14.07;;;8.70;;
22219;SDS011;11279;48.364;10.904;2022-12-07T03:11:35;13.70;;;8.73;;
22219;SDS011;11279;48.364;10.904;2022-12-07T03:14:06;14.45;;;8.98;;
22219;SDS011;11279;48.364;10.904;2022-12-07T03:15:14;14.75;;;8.57;;
22219;SDS011;11279;48.364;10.904;2022-12-07T03:16:20;13.48;;;8.80;;
22219;SDS011;11279;48.364;10.904;2022-12-07T03:17:28;12.57;;;8.43;;
22219;SDS011;11279;48.364;10.904;2022-12-07T03:18:32;13.88;;;9.02;;
22219;SDS011;11279;48.364;10.904;2022-12-07T03:19:36;13.05;;;8.15;;
22219;SDS011;11279;48.364;10.904;2022-12-07T03:20:37;13.82;;;8.75;;
22219;SDS011;11279;48.364;10.904;2022-12-07T03:21:40;13.82;;;8.65;;
22219;SDS011;11279;48.364;10.904;2022-12-07T03:22:43;15.35;;;9.20;;
22219;SDS011;11279;48.364;10.904;2022-12-07T03:23:45;14.18;;;8.88;;
22219;SDS011;11279;48.364;10.904;2022-12-07T03:24:50;13.65;;;8.65;;
22219;SDS011;11279;48.364;10.904;2022-12-07T03:25:55;14.52;;;9.00;;
22219;SDS011;11279;48.364;10.904;2022-12-07T03:27:00;15.52;;;9.32;;
22219;SDS011;11279;48.364;10.904;2022-12-07T03:28:05;13.98;;;8.52;;
22219;SDS011;11279;48.364;10.904;2022-12-07T03:29:07;13.23;;;8.32;;
22219;SDS011;11279;48.364;10.904;2022-12-07T03:30:13;15.00;;;9.07;;
22219;SDS011;11279;48.364;10.904;2022-12-07T03:31:17;13.07;;;8.38;;
22219;SDS011;11279;48.364;10.904;2022-12-07T03:32:26;13.45;;;8.60;;
22219;SDS011;11279;48.364;10.904;2022-12-07T03:33:43;14.45;;;8.60;;
22219;SDS011;11279;48.364;10.904;2022-12-07T03:34:50;15.05;;;9.20;;
22219;SDS011;11279;48.364;10.904;2022-12-07T03:37:07;14.60;;;8.40;;
22219;SDS011;11279;48.364;10.904;2022-12-07T03:40:40;15.05;;;8.93;;
22219;SDS011;11279;48.364;10.904;2022-12-07T03:41:45;14.80;;;9.70;;
22219;SDS011;11279;48.364;10.904;2022-12-07T03:42:45;16.73;;;9.30;;
22219;SDS011;11279;48.364;10.904;2022-12-07T03:43:46;15.55;;;8.82;;
22219;SDS011;11279;48.364;10.904;2022-12-07T03:44:47;13.27;;;8.50;;
22219;SDS011;11279;48.364;10.904;2022-12-07T03:45:55;14.23;;;9.20;;
22219;SDS011;11279;48.364;10.904;2022-12-07T03:47:13;14.63;;;9.23;;
22219;SDS011;11279;48.364;10.904;2022-12-07T03:48:22;14.35;;;8.65;;
22219;SDS011;11279;48.364;10.904;2022-12-07T03:49:30;14.52;;;9.48;;
22219;SDS011;11279;48.364;10.904;2022-12-07T03:50:36;13.70;;;9.00;;
22219;SDS011;11279;48.364;10.904;2022-12-07T03:52:54;15.10;;;9.52;;
22219;SDS011;11279;48.364;10.904;2022-12-07T03:54:11;15.20;;;9.05;;
22219;SDS011;11279;48.364;10.904;2022-12-07T03:55:33;16.52;;;9.48;;
22219;SDS011;11279;48.364;10.904;2022-12-07T03:56:35;14.23;;;8.88;;
22219;SDS011;11279;48.364;10.904;2022-12-07T03:57:36;14.20;;;8.80;;
22219;SDS011;11279;48.364;10.904;2022-12-07T03:58:38;14.38;;;9.27;;
22219;SDS011;11279;48.364;10.904;2022-12-07T03:59:39;15.93;;;10.03;;
22219;SDS011;11279;48.364;10.904;2022-12-07T04:00:40;16.40;;;9.87;;
22219;SDS011;11279;48.364;10.904;2022-12-07T04:01:42;15.52;;;9.50;;
22219;SDS011;11279;48.364;10.904;2022-12-07T04:02:43;16.65;;;9.93;;
22219;SDS011;11279;48.364;10.904;2022-12-07T04:03:44;16.13;;;9.93;;
22219;SDS011;11279;48.364;10.904;2022-12-07T04:04:44;15.50;;;9.27;;
22219;SDS011;11279;48.364;10.904;2022-12-07T04:05:45;14.00;;;8.73;;
22219;SDS011;11279;48.364;10.904;2022-12-07T04:06:45;16.47;;;10.10;;
22219;SDS011;11279;48.364;10.904;2022-12-07T04:07:46;16.10;;;10.10;;
22219;SDS011;11279;48.364;10.904;2022-12-07T04:08:46;16.20;;;9.53;;
22219;SDS011;11279;48.364;10.904;2022-12-07T04:09:47;16.73;;;9.63;;
22219;SDS011;11279;48.364;10.904;2022-12-07T04:10:47;15.00;;;9.23;;
22219;SDS011;11279;48.364;10.904;2022-12-07T04:11:47;15.93;;;9.23;;
22219;SDS011;11279;48.364;10.904;2022-12-07T04:12:48;16.53;;;9.77;;
22219;SDS011;11279;48.364;10.904;2022-12-07T04:13:48;17.97;;;10.00;;
22219;SDS011;11279;48.364;10.904;2022-12-07T04:15:07;16.88;;;10.15;;
22219;SDS011;11279;48.364;10.904;2022-12-07T04:16:08;16.17;;;10.15;;
22219;SDS011;11279;48.364;10.904;2022-12-07T04:17:09;15.17;;;9.27;;
22219;SDS011;11279;48.364;10.904;2022-12-07T04:18:09;15.50;;;9.67;;
22219;SDS011;11279;48.364;10.904;2022-12-07T04:19:09;16.57;;;10.40;;
22219;SDS011;11279;48.364;10.904;2022-12-07T04:20:10;17.20;;;10.20;;
22219;SDS011;11279;48.364;10.904;2022-12-07T04:21:11;15.10;;;9.88;;
22219;SDS011;11279;48.364;10.904;2022-12-07T04:22:11;14.83;;;9.70;;
22219;SDS011;11279;48.364;10.904;2022-12-07T04:23:12;17.93;;;10.03;;
22219;SDS011;11279;48.364;10.904;2022-12-07T04:24:13;14.77;;;9.13;;
22219;SDS011;11279;48.364;10.904;2022-12-07T04:25:15;17.75;;;10.88;;
22219;SDS011;11279;48.364;10.904;2022-12-07T04:26:15;17.60;;;10.77;;
22219;SDS011;11279;48.364;10.904;2022-12-07T04:27:15;16.00;;;9.97;;
22219;SDS011;11279;48.364;10.904;2022-12-07T04:28:16;17.07;;;10.50;;
22219;SDS011;11279;48.364;10.904;2022-12-07T04:29:16;15.23;;;9.73;;
22219;SDS011;11279;48.364;10.904;2022-12-07T04:30:17;16.67;;;10.83;;
22219;SDS011;11279;48.364;10.904;2022-12-07T04:31:18;15.53;;;10.27;;
22219;SDS011;11279;48.364;10.904;2022-12-07T04:32:18;15.43;;;9.87;;
22219;SDS011;11279;48.364;10.904;2022-12-07T04:33:19;16.40;;;10.10;;
22219;SDS011;11279;48.364;10.904;2022-12-07T04:34:19;15.33;;;9.93;;
22219;SDS011;11279;48.364;10.904;2022-12-07T04:35:20;18.47;;;11.53;;
22219;SDS011;11279;48.364;10.904;2022-12-07T04:36:20;15.57;;;9.70;;
22219;SDS011;11279;48.364;10.904;2022-12-07T04:37:20;16.00;;;10.63;;
22219;SDS011;11279;48.364;10.904;2022-12-07T04:38:21;17.83;;;10.23;;
22219;SDS011;11279;48.364;10.904;2022-12-07T04:39:22;16.17;;;10.10;;
22219;SDS011;11279;48.364;10.904;2022-12-07T04:40:24;14.75;;;10.00;;
22219;SDS011;11279;48.364;10.904;2022-12-07T04:41:25;17.37;;;10.43;;
22219;SDS011;11279;48.364;10.904;2022-12-07T04:42:28;17.58;;;10.50;;
22219;SDS011;11279;48.364;10.904;2022-12-07T04:43:29;18.97;;;10.23;;
22219;SDS011;11279;48.364;10.904;2022-12-07T04:44:29;16.13;;;10.40;;
22219;SDS011;11279;48.364;10.904;2022-12-07T04:45:30;19.30;;;11.63;;
22219;SDS011;11279;48.364;10.904;2022-12-07T04:46:31;19.67;;;10.83;;
22219;SDS011;11279;48.364;10.904;2022-12-07T04:47:31;16.58;;;10.98;;
22219;SDS011;11279;48.364;10.904;2022-12-07T04:48:32;17.73;;;11.27;;
22219;SDS011;11279;48.364;10.904;2022-12-07T04:49:32;17.93;;;10.73;;
22219;SDS011;11279;48.364;10.904;2022-12-07T04:50:33;19.23;;;10.80;;
22219;SDS011;11279;48.364;10.904;2022-12-07T04:51:35;16.15;;;10.70;;
22219;SDS011;11279;48.364;10.904;2022-12-07T04:52:35;18.77;;;11.80;;
22219;SDS011;11279;48.364;10.904;2022-12-07T04:53:36;17.57;;;11.63;;
22219;SDS011;11279;48.364;10.904;2022-12-07T04:54:36;19.00;;;11.37;;
22219;SDS011;11279;48.364;10.904;2022-12-07T04:55:37;19.20;;;12.37;;
22219;SDS011;11279;48.364;10.904;2022-12-07T04:56:37;18.27;;;11.23;;
22219;SDS011;11279;48.364;10.904;2022-12-07T04:57:38;19.20;;;11.00;;
22219;SDS011;11279;48.364;10.904;2022-12-07T04:58:38;18.47;;;11.07;;
22219;SDS011;11279;48.364;10.904;2022-12-07T04:59:39;17.43;;;10.40;;
22219;SDS011;11279;48.364;10.904;2022-12-07T05:00:39;17.47;;;11.10;;
22219;SDS011;11279;48.364;10.904;2022-12-07T05:01:40;17.03;;;10.97;;
22219;SDS011;11279;48.364;10.904;2022-12-07T05:02:40;20.63;;;11.90;;
22219;SDS011;11279;48.364;10.904;2022-12-07T05:03:41;19.30;;;11.50;;
22219;SDS011;11279;48.364;10.904;2022-12-07T05:04:41;17.40;;;11.33;;
22219;SDS011;11279;48.364;10.904;2022-12-07T05:05:42;17.20;;;11.07;;
22219;SDS011;11279;48.364;10.904;2022-12-07T05:06:42;18.13;;;11.30;;
22219;SDS011;11279;48.364;10.904;2022-12-07T05:07:43;18.90;;;11.63;;
22219;SDS011;11279;48.364;10.904;2022-12-07T05:08:43;25.17;;;12.67;;
22219;SDS011;11279;48.364;10.904;2022-12-07T05:09:44;20.80;;;12.10;;
22219;SDS011;11279;48.364;10.904;2022-12-07T05:10:44;19.30;;;11.97;;
22219;SDS011;11279;48.364;10.904;2022-12-07T05:11:45;20.80;;;12.07;;
22219;SDS011;11279;48.364;10.904;2022-12-07T05:12:45;17.73;;;11.17;;
22219;SDS011;11279;48.364;10.904;2022-12-07T05:13:46;19.50;;;11.67;;
22219;SDS011;11279;48.364;10.904;2022-12-07T05:14:46;21.63;;;11.47;;
22219;SDS011;11279;48.364;10.904;2022-12-07T05:15:47;17.80;;;11.10;;
22219;SDS011;11279;48.364;10.904;2022-12-07T05:16:48;18.52;;;11.25;;
22219;SDS011;11279;48.364;10.904;2022-12-07T05:17:50;18.00;;;11.15;;
22219;SDS011;11279;48.364;10.904;2022-12-07T05:18:52;17.38;;;11.30;;
22219;SDS011;11279;48.364;10.904;2022-12-07T05:19:52;19.20;;;11.87;;
22219;SDS011;11279;48.364;10.904;2022-12-07T05:20:53;18.30;;;11.53;;
22219;SDS011;11279;48.364;10.904;2022-12-07T05:21:53;19.87;;;11.77;;
22219;SDS011;11279;48.364;10.904;2022-12-07T05:22:54;19.83;;;11.47;;
22219;SDS011;11279;48.364;10.904;2022-12-07T05:23:54;19.27;;;11.70;;
22219;SDS011;11279;48.364;10.904;2022-12-07T05:24:55;21.47;;;12.27;;
22219;SDS011;11279;48.364;10.904;2022-12-07T05:25:55;18.00;;;11.13;;
22219;SDS011;11279;48.364;10.904;2022-12-07T05:26:56;17.73;;;11.23;;
22219;SDS011;11279;48.364;10.904;2022-12-07T05:27:56;19.23;;;10.83;;
22219;SDS011;11279;48.364;10.904;2022-12-07T05:28:57;20.30;;;11.93;;
22219;SDS011;11279;48.364;10.904;2022-12-07T05:29:58;19.17;;;12.10;;
22219;SDS011;11279;48.364;10.904;2022-12-07T05:30:58;20.23;;;11.43;;
22219;SDS011;11279;48.364;10.904;2022-12-07T05:31:59;20.30;;;12.13;;
22219;SDS011;11279;48.364;10.904;2022-12-07T05:32:59;19.47;;;11.93;;
22219;SDS011;11279;48.364;10.904;2022-12-07T05:34:00;20.20;;;11.93;;
22219;SDS011;11279;48.364;10.904;2022-12-07T05:35:00;19.23;;;12.17;;
22219;SDS011;11279;48.364;10.904;2022-12-07T05:36:00;18.57;;;11.53;;
22219;SDS011;11279;48.364;10.904;2022-12-07T05:37:05;20.13;;;12.10;;
22219;SDS011;11279;48.364;10.904;2022-12-07T05:38:05;20.33;;;12.20;;
22219;SDS011;11279;48.364;10.904;2022-12-07T05:39:06;20.03;;;12.40;;
22219;SDS011;11279;48.364;10.904;2022-12-07T05:40:07;19.58;;;12.10;;
22219;SDS011;11279;48.364;10.904;2022-12-07T05:41:09;18.23;;;11.88;;
22219;SDS011;11279;48.364;10.904;2022-12-07T05:42:32;19.58;;;11.52;;
22219;SDS011;11279;48.364;10.904;2022-12-07T05:43:33;17.63;;;11.00;;
22219;SDS011;11279;48.364;10.904;2022-12-07T05:44:33;19.17;;;12.27;;
22219;SDS011;11279;48.364;10.904;2022-12-07T05:45:34;20.37;;;12.53;;
22219;SDS011;11279;48.364;10.904;2022-12-07T05:46:34;18.27;;;11.47;;
22219;SDS011;11279;48.364;10.904;2022-12-07T05:47:35;20.20;;;12.47;;
22219;SDS011;11279;48.364;10.904;2022-12-07T05:48:35;21.27;;;13.63;;
22219;SDS011;11279;48.364;10.904;2022-12-07T05:49:36;20.17;;;12.87;;
22219;SDS011;11279;48.364;10.904;2022-12-07T05:50:37;17.93;;;11.40;;
22219;SDS011;11279;48.364;10.904;2022-12-07T05:51:37;18.97;;;12.07;;
22219;SDS011;11279;48.364;10.904;2022-12-07T05:52:38;18.37;;;11.80;;
22219;SDS011;11279;48.364;10.904;2022-12-07T05:53:38;18.93;;;11.70;;
22219;SDS011;11279;48.364;10.904;2022-12-07T05:54:38;20.37;;;12.50;;
22219;SDS011;11279;48.364;10.904;2022-12-07T05:55:39;21.07;;;13.40;;
22219;SDS011;11279;48.364;10.904;2022-12-07T05:56:39;19.93;;;11.83;;
22219;SDS011;11279;48.364;10.904;2022-12-07T05:57:40;19.53;;;11.60;;
22219;SDS011;11279;48.364;10.904;2022-12-07T05:59:00;22.77;;;12.20;;
22219;SDS011;11279;48.364;10.904;2022-12-07T06:00:19;19.38;;;11.85;;
22219;SDS011;11279;48.364;10.904;2022-12-07T06:01:20;19.27;;;11.87;;
22219;SDS011;11279;48.364;10.904;2022-12-07T06:02:20;19.53;;;12.13;;
22219;SDS011;11279;48.364;10.904;2022-12-07T06:03:21;19.00;;;12.40;;
22219;SDS011;11279;48.364;10.904;2022-12-07T06:04:21;20.47;;;11.90;;
22219;SDS011;11279;48.364;10.904;2022-12-07T06:05:22;21.00;;;13.05;;
22219;SDS011;11279;48.364;10.904;2022-12-07T06:06:22;21.50;;;12.27;;
22219;SDS011;11279;48.364;10.904;2022-12-07T06:07:23;19.37;;;11.33;;
22219;SDS011;11279;48.364;10.904;2022-12-07T06:08:23;20.90;;;12.70;;
22219;SDS011;11279;48.364;10.904;2022-12-07T06:09:24;21.23;;;12.43;;
22219;SDS011;11279;48.364;10.904;2022-12-07T06:10:25;20.55;;;11.70;;
22219;SDS011;11279;48.364;10.904;2022-12-07T06:11:26;18.97;;;11.93;;
22219;SDS011;11279;48.364;10.904;2022-12-07T06:12:45;20.52;;;11.55;;
22219;SDS011;11279;48.364;10.904;2022-12-07T06:13:46;22.05;;;12.48;;
22219;SDS011;11279;48.364;10.904;2022-12-07T06:14:46;23.77;;;13.60;;
22219;SDS011;11279;48.364;10.904;2022-12-07T06:15:47;22.83;;;12.27;;
22219;SDS011;11279;48.364;10.904;2022-12-07T06:16:47;21.43;;;12.67;;
22219;SDS011;11279;48.364;10.904;2022-12-07T06:17:48;20.70;;;12.70;;
22219;SDS011;11279;48.364;10.904;2022-12-07T06:18:48;18.90;;;12.00;;
22219;SDS011;11279;48.364;10.904;2022-12-07T06:19:49;21.30;;;13.67;;
22219;SDS011;11279;48.364;10.904;2022-12-07T06:20:49;21.33;;;12.40;;
22219;SDS011;11279;48.364;10.904;2022-12-07T06:21:50;20.33;;;12.43;;
22219;SDS011;11279;48.364;10.904;2022-12-07T06:22:50;19.47;;;12.07;;
22219;SDS011;11279;48.364;10.904;2022-12-07T06:23:50;19.90;;;11.73;;
22219;SDS011;11279;48.364;10.904;2022-12-07T06:24:51;20.73;;;12.63;;
22219;SDS011;11279;48.364;10.904;2022-12-07T06:25:51;21.57;;;12.87;;
22219;SDS011;11279;48.364;10.904;2022-12-07T06:26:52;20.60;;;12.33;;
22219;SDS011;11279;48.364;10.904;2022-12-07T06:27:52;21.13;;;12.90;;
22219;SDS011;11279;48.364;10.904;2022-12-07T06:28:55;24.38;;;13.45;;
22219;SDS011;11279;48.364;10.904;2022-12-07T06:29:55;23.13;;;13.33;;
22219;SDS011;11279;48.364;10.904;2022-12-07T06:30:56;22.10;;;13.33;;
22219;SDS011;11279;48.364;10.904;2022-12-07T06:31:58;21.13;;;13.55;;
22219;SDS011;11279;48.364;10.904;2022-12-07T06:32:59;22.10;;;12.87;;
22219;SDS011;11279;48.364;10.904;2022-12-07T06:34:03;21.50;;;12.83;;